sensor_id;sensor_type;location;lat;lon;timestamp;pressure;altitude;pressure_sealevel;temperature;humidity
13235;BME280;6683;48.506;9.050;2023-09-12T00:01:49;97757.94;;;20.93;56.57
13235;BME280;6683;48.506;9.050;2023-09-12T00:04:51;97753.63;;;20.87;56.70
13235;BME280;6683;48.506;9.050;2023-09-12T00:07:54;97758.16;;;20.82;56.65
13235;BME280;6683;48.506;9.050;2023-09-12T00:11:02;97754.09;;;20.74;56.58
13235;BME280;6683;48.506;9.050;2023-09-12T00:14:04;97751.41;;;20.69;56.61
13235;BME280;6683;48.506;9.050;2023-09-12T00:17:09;97756.69;;;20.59;56.89
13235;BME280;6683;48.506;9.050;2023-09-12T00:20:11;97756.41;;;20.50;56.75
13235;BME280;6683;48.506;9.050;2023-09-12T00:23:15;97758.50;;;20.43;56.93
13235;BME280;6683;48.506;9.050;2023-09-12T00:26:17;97752.56;;;20.36;56.99
13235;BME280;6683;48.506;9.050;2023-09-12T00:29:19;97751.72;;;20.31;57.10
13235;BME280;6683;48.506;9.050;2023-09-12T00:32:21;97751.69;;;20.26;57.38
13235;BME280;6683;48.506;9.050;2023-09-12T00:35:23;97746.31;;;20.21;57.55
13235;BME280;6683;48.506;9.050;2023-09-12T00:38:27;97740.88;;;20.16;57.89
13235;BME280;6683;48.506;9.050;2023-09-12T00:41:29;97751.88;;;20.14;57.92
13235;BME280;6683;48.506;9.050;2023-09-12T00:44:31;97749.69;;;20.11;57.99
13235;BME280;6683;48.506;9.050;2023-09-12T00:47:33;97751.81;;;20.09;58.00
13235;BME280;6683;48.506;9.050;2023-09-12T00:50:37;97737.09;;;20.07;58.16
13235;BME280;6683;48.506;9.050;2023-09-12T00:53:41;97729.28;;;20.05;58.37
13235;BME280;6683;48.506;9.050;2023-09-12T00:56:43;97735.47;;;20.06;58.48
13235;BME280;6683;48.506;9.050;2023-09-12T00:59:46;97736.53;;;20.05;58.42
13235;BME280;6683;48.506;9.050;2023-09-12T01:02:49;97742.13;;;20.03;58.70
13235;BME280;6683;48.506;9.050;2023-09-12T01:05:53;97742.41;;;20.02;58.49
13235;BME280;6683;48.506;9.050;2023-09-12T01:08:56;97740.78;;;20.01;58.59
13235;BME280;6683;48.506;9.050;2023-09-12T01:11:59;97731.09;;;19.94;58.50
13235;BME280;6683;48.506;9.050;2023-09-12T01:15:04;97739.09;;;19.89;58.64
13235;BME280;6683;48.506;9.050;2023-09-12T01:18:11;97741.72;;;19.84;58.59
13235;BME280;6683;48.506;9.050;2023-09-12T01:21:41;97735.81;;;19.77;58.58
13235;BME280;6683;48.506;9.050;2023-09-12T01:25:54;97745.66;;;19.72;58.37
13235;BME280;6683;48.506;9.050;2023-09-12T01:29:01;97737.25;;;19.63;58.60
13235;BME280;6683;48.506;9.050;2023-09-12T01:32:05;97742.03;;;19.56;58.58
13235;BME280;6683;48.506;9.050;2023-09-12T01:35:08;97759.91;;;19.51;58.90
13235;BME280;6683;48.506;9.050;2023-09-12T01:38:11;97757.19;;;19.46;58.94
13235;BME280;6683;48.506;9.050;2023-09-12T01:41:13;97758.22;;;19.40;59.02
13235;BME280;6683;48.506;9.050;2023-09-12T01:44:17;97757.13;;;19.36;59.35
13235;BME280;6683;48.506;9.050;2023-09-12T01:47:21;97755.94;;;19.32;59.36
13235;BME280;6683;48.506;9.050;2023-09-12T01:50:26;97751.66;;;19.31;59.43
13235;BME280;6683;48.506;9.050;2023-09-12T01:53:29;97750.59;;;19.32;59.52
13235;BME280;6683;48.506;9.050;2023-09-12T01:56:33;97752.72;;;19.30;59.49
13235;BME280;6683;48.506;9.050;2023-09-12T01:59:37;97754.84;;;19.28;59.51
13235;BME280;6683;48.506;9.050;2023-09-12T02:02:40;97746.50;;;19.24;59.68
13235;BME280;6683;48.506;9.050;2023-09-12T02:05:43;97751.88;;;19.24;59.74
13235;BME280;6683;48.506;9.050;2023-09-12T02:08:45;97754.78;;;19.23;59.60
13235;BME280;6683;48.506;9.050;2023-09-12T02:11:48;97745.88;;;19.17;59.62
13235;BME280;6683;48.506;9.050;2023-09-12T02:14:52;97744.00;;;19.12;59.74
13235;BME280;6683;48.506;9.050;2023-09-12T02:17:54;97748.47;;;19.07;59.62
13235;BME280;6683;48.506;9.050;2023-09-12T02:20:59;97745.97;;;19.00;59.84
13235;BME280;6683;48.506;9.050;2023-09-12T02:24:01;97738.19;;;18.94;59.91
13235;BME280;6683;48.506;9.050;2023-09-12T02:27:04;97734.94;;;18.92;59.90
13235;BME280;6683;48.506;9.050;2023-09-12T02:30:08;97739.97;;;18.88;60.01
13235;BME280;6683;48.506;9.050;2023-09-12T02:33:10;97737.00;;;18.85;60.21
13235;BME280;6683;48.506;9.050;2023-09-12T02:36:13;97732.69;;;18.84;60.31
13235;BME280;6683;48.506;9.050;2023-09-12T02:39:15;97730.28;;;18.82;60.35
13235;BME280;6683;48.506;9.050;2023-09-12T02:42:17;97731.34;;;18.81;60.40
13235;BME280;6683;48.506;9.050;2023-09-12T02:45:21;97736.91;;;18.80;60.41
13235;BME280;6683;48.506;9.050;2023-09-12T02:48:23;97740.66;;;18.79;60.34
13235;BME280;6683;48.506;9.050;2023-09-12T02:51:26;97738.47;;;18.76;60.49
13235;BME280;6683;48.506;9.050;2023-09-12T02:54:28;97734.69;;;18.72;60.46
13235;BME280;6683;48.506;9.050;2023-09-12T02:57:30;97732.75;;;18.67;60.42
13235;BME280;6683;48.506;9.050;2023-09-12T03:00:38;97733.53;;;18.63;60.53
13235;BME280;6683;48.506;9.050;2023-09-12T03:03:40;97740.97;;;18.61;60.51
13235;BME280;6683;48.506;9.050;2023-09-12T03:06:42;97739.63;;;18.58;60.79
13235;BME280;6683;48.506;9.050;2023-09-12T03:09:47;97734.81;;;18.60;60.66
13235;BME280;6683;48.506;9.050;2023-09-12T03:12:49;97736.69;;;18.60;60.58
13235;BME280;6683;48.506;9.050;2023-09-12T03:15:53;97722.50;;;18.59;60.66
13235;BME280;6683;48.506;9.050;2023-09-12T03:18:55;97721.47;;;18.60;60.71
13235;BME280;6683;48.506;9.050;2023-09-12T03:21:58;97726.81;;;18.60;60.68
13235;BME280;6683;48.506;9.050;2023-09-12T03:25:00;97728.09;;;18.58;60.65
13235;BME280;6683;48.506;9.050;2023-09-12T03:28:03;97729.41;;;18.55;60.88
13235;BME280;6683;48.506;9.050;2023-09-12T03:31:09;97731.50;;;18.53;60.82
13235;BME280;6683;48.506;9.050;2023-09-12T03:34:12;97728.84;;;18.53;61.06
13235;BME280;6683;48.506;9.050;2023-09-12T03:37:14;97713.88;;;18.52;61.01
13235;BME280;6683;48.506;9.050;2023-09-12T03:40:16;97717.59;;;18.51;61.16
13235;BME280;6683;48.506;9.050;2023-09-12T03:43:18;97710.88;;;18.49;61.00
13235;BME280;6683;48.506;9.050;2023-09-12T03:46:22;97722.38;;;18.49;61.25
13235;BME280;6683;48.506;9.050;2023-09-12T03:49:24;97713.81;;;18.47;61.16
13235;BME280;6683;48.506;9.050;2023-09-12T03:52:26;97713.81;;;18.47;61.18
13235;BME280;6683;48.506;9.050;2023-09-12T03:55:28;97724.75;;;18.46;61.20
13235;BME280;6683;48.506;9.050;2023-09-12T03:58:31;97716.16;;;18.44;61.27
13235;BME280;6683;48.506;9.050;2023-09-12T04:01:34;97726.50;;;18.40;61.40
13235;BME280;6683;48.506;9.050;2023-09-12T04:04:37;97729.13;;;18.35;61.32
13235;BME280;6683;48.506;9.050;2023-09-12T04:07:39;97718.91;;;18.32;61.23
13235;BME280;6683;48.506;9.050;2023-09-12T04:10:42;97719.66;;;18.27;61.25
13235;BME280;6683;48.506;9.050;2023-09-12T04:13:44;97725.97;;;18.21;61.29
13235;BME280;6683;48.506;9.050;2023-09-12T04:16:48;97713.59;;;18.15;61.50
13235;BME280;6683;48.506;9.050;2023-09-12T04:19:50;97718.91;;;18.10;61.60
13235;BME280;6683;48.506;9.050;2023-09-12T04:22:52;97715.09;;;18.06;61.82
13235;BME280;6683;48.506;9.050;2023-09-12T04:25:54;97714.28;;;18.06;61.80
13235;BME280;6683;48.506;9.050;2023-09-12T04:28:56;97718.56;;;18.07;61.86
13235;BME280;6683;48.506;9.050;2023-09-12T04:32:00;97714.84;;;18.08;61.81
13235;BME280;6683;48.506;9.050;2023-09-12T04:35:03;97723.41;;;18.10;61.76
13235;BME280;6683;48.506;9.050;2023-09-12T04:38:06;97722.34;;;18.11;61.87
13235;BME280;6683;48.506;9.050;2023-09-12T04:41:08;97726.09;;;18.10;61.79
13235;BME280;6683;48.506;9.050;2023-09-12T04:44:11;97723.69;;;18.08;62.05
13235;BME280;6683;48.506;9.050;2023-09-12T04:47:14;97717.78;;;18.06;62.08
13235;BME280;6683;48.506;9.050;2023-09-12T04:50:17;97715.66;;;18.08;62.13
13235;BME280;6683;48.506;9.050;2023-09-12T04:53:19;97717.53;;;18.08;62.40
13235;BME280;6683;48.506;9.050;2023-09-12T04:56:21;97717.00;;;18.11;62.36
13235;BME280;6683;48.506;9.050;2023-09-12T04:59:25;97712.00;;;18.14;62.39
13235;BME280;6683;48.506;9.050;2023-09-12T05:02:28;97722.44;;;18.16;62.29
13235;BME280;6683;48.506;9.050;2023-09-12T05:05:30;97725.94;;;18.16;62.24
13235;BME280;6683;48.506;9.050;2023-09-12T05:08:32;97707.78;;;18.18;62.36
13235;BME280;6683;48.506;9.050;2023-09-12T05:11:35;97710.19;;;18.20;62.36
13235;BME280;6683;48.506;9.050;2023-09-12T05:14:37;97716.63;;;18.19;62.42
13235;BME280;6683;48.506;9.050;2023-09-12T05:17:41;97720.06;;;18.19;62.38
13235;BME280;6683;48.506;9.050;2023-09-12T05:20:43;97719.03;;;18.20;62.28
13235;BME280;6683;48.506;9.050;2023-09-12T05:23:45;97709.94;;;18.21;62.42
13235;BME280;6683;48.506;9.050;2023-09-12T05:26:47;97718.78;;;18.22;62.49
13235;BME280;6683;48.506;9.050;2023-09-12T05:29:50;97727.34;;;18.24;62.58
13235;BME280;6683;48.506;9.050;2023-09-12T05:32:54;97725.25;;;18.26;62.57
13235;BME280;6683;48.506;9.050;2023-09-12T05:35:56;97734.94;;;18.32;62.82
13235;BME280;6683;48.506;9.050;2023-09-12T05:38:58;97733.38;;;18.36;62.94
13235;BME280;6683;48.506;9.050;2023-09-12T05:42:00;97737.56;;;18.44;63.03
13235;BME280;6683;48.506;9.050;2023-09-12T05:45:03;97736.03;;;18.53;63.29
13235;BME280;6683;48.506;9.050;2023-09-12T05:48:07;97734.56;;;18.62;63.31
13235;BME280;6683;48.506;9.050;2023-09-12T05:51:10;97740.84;;;18.72;63.45
13235;BME280;6683;48.506;9.050;2023-09-12T05:54:12;97744.19;;;18.84;63.41
13235;BME280;6683;48.506;9.050;2023-09-12T05:57:15;97740.59;;;18.95;63.59
13235;BME280;6683;48.506;9.050;2023-09-12T06:00:17;97753.03;;;19.06;63.54
13235;BME280;6683;48.506;9.050;2023-09-12T06:03:21;97751.81;;;19.19;63.61
13235;BME280;6683;48.506;9.050;2023-09-12T06:06:23;97745.22;;;19.32;63.61
13235;BME280;6683;48.506;9.050;2023-09-12T06:09:25;97747.00;;;19.43;63.60
13235;BME280;6683;48.506;9.050;2023-09-12T06:12:30;97732.91;;;19.52;63.50
13235;BME280;6683;48.506;9.050;2023-09-12T06:15:33;97738.34;;;19.62;63.53
13235;BME280;6683;48.506;9.050;2023-09-12T06:18:37;97737.34;;;19.73;63.32
13235;BME280;6683;48.506;9.050;2023-09-12T06:21:39;97740.69;;;19.85;63.19
13235;BME280;6683;48.506;9.050;2023-09-12T06:24:42;97742.63;;;19.95;62.99
13235;BME280;6683;48.506;9.050;2023-09-12T06:27:45;97741.09;;;20.04;63.10
13235;BME280;6683;48.506;9.050;2023-09-12T06:30:47;97737.66;;;20.14;62.86
13235;BME280;6683;48.506;9.050;2023-09-12T06:33:50;97743.63;;;20.21;62.48
13235;BME280;6683;48.506;9.050;2023-09-12T06:36:52;97738.84;;;20.28;62.47
13235;BME280;6683;48.506;9.050;2023-09-12T06:39:54;97739.16;;;20.36;62.41
13235;BME280;6683;48.506;9.050;2023-09-12T06:42:56;97737.06;;;20.43;62.04
13235;BME280;6683;48.506;9.050;2023-09-12T06:45:58;97744.06;;;20.49;62.01
13235;BME280;6683;48.506;9.050;2023-09-12T06:49:02;97749.69;;;20.53;61.85
13235;BME280;6683;48.506;9.050;2023-09-12T06:52:05;97755.09;;;20.58;61.83
13235;BME280;6683;48.506;9.050;2023-09-12T06:55:08;97759.97;;;20.61;61.72
13235;BME280;6683;48.506;9.050;2023-09-12T06:58:10;97758.38;;;20.65;61.63
13235;BME280;6683;48.506;9.050;2023-09-12T07:01:12;97765.06;;;20.67;61.59
13235;BME280;6683;48.506;9.050;2023-09-12T07:04:15;97769.91;;;20.70;61.62
13235;BME280;6683;48.506;9.050;2023-09-12T07:07:17;97775.31;;;20.76;61.65
13235;BME280;6683;48.506;9.050;2023-09-12T07:10:21;97775.59;;;20.79;61.73
13235;BME280;6683;48.506;9.050;2023-09-12T07:13:24;97776.41;;;20.85;61.68
13235;BME280;6683;48.506;9.050;2023-09-12T07:16:26;97778.03;;;20.91;61.62
13235;BME280;6683;48.506;9.050;2023-09-12T07:19:29;97777.53;;;20.99;61.47
13235;BME280;6683;48.506;9.050;2023-09-12T07:22:31;97773.59;;;21.06;61.25
13235;BME280;6683;48.506;9.050;2023-09-12T07:25:38;97769.56;;;21.14;61.34
13235;BME280;6683;48.506;9.050;2023-09-12T07:28:41;97783.31;;;21.27;61.17
13235;BME280;6683;48.506;9.050;2023-09-12T07:31:43;97777.97;;;21.37;61.30
13235;BME280;6683;48.506;9.050;2023-09-12T07:34:46;97781.72;;;21.46;60.92
13235;BME280;6683;48.506;9.050;2023-09-12T07:37:49;97785.00;;;21.59;60.96
13235;BME280;6683;48.506;9.050;2023-09-12T07:40:51;97781.50;;;21.68;60.96
13235;BME280;6683;48.506;9.050;2023-09-12T07:43:53;97778.81;;;21.78;60.66
13235;BME280;6683;48.506;9.050;2023-09-12T07:46:55;97777.78;;;21.89;60.77
13235;BME280;6683;48.506;9.050;2023-09-12T07:49:59;97778.34;;;21.96;60.15
13235;BME280;6683;48.506;9.050;2023-09-12T07:53:01;97782.06;;;22.05;60.07
13235;BME280;6683;48.506;9.050;2023-09-12T07:56:04;97773.19;;;22.10;60.09
13235;BME280;6683;48.506;9.050;2023-09-12T07:59:06;97778.84;;;22.18;59.83
13235;BME280;6683;48.506;9.050;2023-09-12T08:02:08;97785.00;;;22.24;59.74
13235;BME280;6683;48.506;9.050;2023-09-12T08:05:14;97785.56;;;22.31;59.89
13235;BME280;6683;48.506;9.050;2023-09-12T08:08:17;97782.56;;;22.43;60.19
13235;BME280;6683;48.506;9.050;2023-09-12T08:11:19;97781.72;;;22.57;60.04
13235;BME280;6683;48.506;9.050;2023-09-12T08:14:21;97782.25;;;22.74;59.97
13235;BME280;6683;48.506;9.050;2023-09-12T08:17:23;97786.72;;;22.99;59.68
13235;BME280;6683;48.506;9.050;2023-09-12T08:20:27;97779.06;;;23.26;59.47
13235;BME280;6683;48.506;9.050;2023-09-12T08:23:29;97780.00;;;23.55;59.45
13235;BME280;6683;48.506;9.050;2023-09-12T08:26:31;97779.78;;;23.86;59.08
13235;BME280;6683;48.506;9.050;2023-09-12T08:29:34;97781.19;;;24.17;58.84
13235;BME280;6683;48.506;9.050;2023-09-12T08:32:36;97780.09;;;24.46;58.18
13235;BME280;6683;48.506;9.050;2023-09-12T08:35:41;97780.28;;;24.79;57.84
13235;BME280;6683;48.506;9.050;2023-09-12T08:38:43;97778.84;;;25.10;57.31
13235;BME280;6683;48.506;9.050;2023-09-12T08:41:45;97770.63;;;25.38;56.83
13235;BME280;6683;48.506;9.050;2023-09-12T08:44:48;97774.88;;;25.63;56.41
13235;BME280;6683;48.506;9.050;2023-09-12T08:47:52;97761.50;;;25.90;55.98
13235;BME280;6683;48.506;9.050;2023-09-12T08:50:56;97762.09;;;26.20;55.48
13235;BME280;6683;48.506;9.050;2023-09-12T08:53:59;97754.41;;;26.40;54.79
13235;BME280;6683;48.506;9.050;2023-09-12T08:57:05;97758.63;;;26.60;54.71
13235;BME280;6683;48.506;9.050;2023-09-12T09:00:10;97758.28;;;26.80;54.37
13235;BME280;6683;48.506;9.050;2023-09-12T09:03:14;97759.09;;;27.08;53.55
13235;BME280;6683;48.506;9.050;2023-09-12T09:06:19;97755.63;;;27.29;53.52
13235;BME280;6683;48.506;9.050;2023-09-12T09:09:24;97751.94;;;27.61;53.14
13235;BME280;6683;48.506;9.050;2023-09-12T09:12:27;97752.66;;;27.89;52.61
13235;BME280;6683;48.506;9.050;2023-09-12T09:15:30;97745.50;;;28.15;51.97
13235;BME280;6683;48.506;9.050;2023-09-12T09:18:50;97747.56;;;28.40;51.84
13235;BME280;6683;48.506;9.050;2023-09-12T09:22:05;97734.94;;;28.66;51.49
13235;BME280;6683;48.506;9.050;2023-09-12T09:25:12;97729.75;;;28.95;50.86
13235;BME280;6683;48.506;9.050;2023-09-12T09:28:19;97721.34;;;29.23;50.19
13235;BME280;6683;48.506;9.050;2023-09-12T09:31:21;97712.88;;;29.50;49.92
13235;BME280;6683;48.506;9.050;2023-09-12T09:34:24;97714.31;;;29.73;49.60
13235;BME280;6683;48.506;9.050;2023-09-12T09:37:29;97707.09;;;29.94;49.40
13235;BME280;6683;48.506;9.050;2023-09-12T09:40:33;97698.41;;;30.18;49.13
13235;BME280;6683;48.506;9.050;2023-09-12T09:43:35;97697.41;;;30.39;48.84
13235;BME280;6683;48.506;9.050;2023-09-12T09:46:38;97698.06;;;30.65;48.47
13235;BME280;6683;48.506;9.050;2023-09-12T09:49:40;97695.84;;;30.97;47.96
13235;BME280;6683;48.506;9.050;2023-09-12T09:52:44;97689.47;;;31.34;47.30
13235;BME280;6683;48.506;9.050;2023-09-12T09:55:46;97684.41;;;31.65;46.60
13235;BME280;6683;48.506;9.050;2023-09-12T09:58:50;97676.66;;;31.88;46.05
13235;BME280;6683;48.506;9.050;2023-09-12T10:01:57;97684.16;;;32.11;45.58
13235;BME280;6683;48.506;9.050;2023-09-12T10:05:00;97671.44;;;32.40;45.21
13235;BME280;6683;48.506;9.050;2023-09-12T10:08:07;97678.66;;;32.68;44.27
13235;BME280;6683;48.506;9.050;2023-09-12T10:11:11;97675.66;;;32.97;44.01
13235;BME280;6683;48.506;9.050;2023-09-12T10:14:15;97676.44;;;33.22;42.70
13235;BME280;6683;48.506;9.050;2023-09-12T10:17:23;97682.69;;;33.35;41.25
13235;BME280;6683;48.506;9.050;2023-09-12T10:20:37;97679.81;;;33.43;40.78
13235;BME280;6683;48.506;9.050;2023-09-12T10:23:44;97680.59;;;33.56;40.64
13235;BME280;6683;48.506;9.050;2023-09-12T10:26:49;97678.25;;;33.70;40.03
13235;BME280;6683;48.506;9.050;2023-09-12T10:29:51;97674.31;;;33.83;39.30
13235;BME280;6683;48.506;9.050;2023-09-12T10:32:54;97675.41;;;33.94;38.93
13235;BME280;6683;48.506;9.050;2023-09-12T10:35:57;97670.75;;;34.10;38.78
13235;BME280;6683;48.506;9.050;2023-09-12T10:39:03;97668.56;;;34.31;38.57
13235;BME280;6683;48.506;9.050;2023-09-12T10:42:07;97657.81;;;34.54;38.13
13235;BME280;6683;48.506;9.050;2023-09-12T10:45:10;97655.19;;;34.77;38.29
13235;BME280;6683;48.506;9.050;2023-09-12T10:48:12;97651.91;;;35.02;37.57
13235;BME280;6683;48.506;9.050;2023-09-12T10:51:16;97652.28;;;35.20;36.25
13235;BME280;6683;48.506;9.050;2023-09-12T10:54:35;97648.66;;;35.35;36.01
13235;BME280;6683;48.506;9.050;2023-09-12T10:58:01;97639.16;;;35.67;35.46
13235;BME280;6683;48.506;9.050;2023-09-12T11:01:23;97644.69;;;35.90;34.58
13235;BME280;6683;48.506;9.050;2023-09-12T11:04:32;97636.84;;;36.11;33.82
13235;BME280;6683;48.506;9.050;2023-09-12T11:07:45;97639.47;;;36.27;33.07
13235;BME280;6683;48.506;9.050;2023-09-12T11:11:17;97631.31;;;36.53;32.54
13235;BME280;6683;48.506;9.050;2023-09-12T11:14:20;97627.69;;;36.75;32.10
13235;BME280;6683;48.506;9.050;2023-09-12T11:17:24;97622.09;;;36.94;31.79
13235;BME280;6683;48.506;9.050;2023-09-12T11:20:51;97619.38;;;37.24;31.41
13235;BME280;6683;48.506;9.050;2023-09-12T11:23:54;97612.56;;;37.47;30.80
13235;BME280;6683;48.506;9.050;2023-09-12T11:27:00;97607.72;;;37.71;30.22
13235;BME280;6683;48.506;9.050;2023-09-12T11:30:06;97607.97;;;37.92;29.77
13235;BME280;6683;48.506;9.050;2023-09-12T11:33:12;97606.06;;;37.99;29.37
13235;BME280;6683;48.506;9.050;2023-09-12T11:36:14;97602.16;;;38.00;29.18
13235;BME280;6683;48.506;9.050;2023-09-12T11:39:24;97600.59;;;38.03;28.79
13235;BME280;6683;48.506;9.050;2023-09-12T11:42:28;97600.66;;;38.10;28.82
13235;BME280;6683;48.506;9.050;2023-09-12T11:45:30;97591.75;;;38.23;27.94
13235;BME280;6683;48.506;9.050;2023-09-12T11:48:33;97585.16;;;38.38;27.84
13235;BME280;6683;48.506;9.050;2023-09-12T11:51:35;97587.16;;;38.45;27.04
13235;BME280;6683;48.506;9.050;2023-09-12T11:54:38;97577.78;;;38.53;27.00
13235;BME280;6683;48.506;9.050;2023-09-12T11:57:42;97584.13;;;38.57;26.87
13235;BME280;6683;48.506;9.050;2023-09-12T12:00:45;97577.81;;;38.57;26.47
13235;BME280;6683;48.506;9.050;2023-09-12T12:03:47;97582.50;;;38.53;26.72
13235;BME280;6683;48.506;9.050;2023-09-12T12:06:53;97580.50;;;38.46;25.83
13235;BME280;6683;48.506;9.050;2023-09-12T12:09:56;97583.59;;;38.41;25.74
13235;BME280;6683;48.506;9.050;2023-09-12T12:12:59;97572.94;;;38.36;25.18
13235;BME280;6683;48.506;9.050;2023-09-12T12:16:14;97577.19;;;38.26;25.99
13235;BME280;6683;48.506;9.050;2023-09-12T12:19:17;97578.38;;;38.25;25.70
13235;BME280;6683;48.506;9.050;2023-09-12T12:22:19;97576.41;;;38.26;25.60
13235;BME280;6683;48.506;9.050;2023-09-12T12:25:21;97568.13;;;38.26;25.23
13235;BME280;6683;48.506;9.050;2023-09-12T12:28:24;97568.03;;;38.19;25.23
13235;BME280;6683;48.506;9.050;2023-09-12T12:31:27;97568.78;;;38.16;25.51
13235;BME280;6683;48.506;9.050;2023-09-12T12:34:29;97566.09;;;38.19;25.65
13235;BME280;6683;48.506;9.050;2023-09-12T12:37:31;97560.56;;;38.19;24.80
13235;BME280;6683;48.506;9.050;2023-09-12T12:40:37;97560.16;;;38.17;25.07
13235;BME280;6683;48.506;9.050;2023-09-12T12:43:42;97552.97;;;38.06;24.84
13235;BME280;6683;48.506;9.050;2023-09-12T12:46:51;97550.06;;;37.88;25.33
13235;BME280;6683;48.506;9.050;2023-09-12T12:49:54;97555.00;;;37.72;25.95
13235;BME280;6683;48.506;9.050;2023-09-12T12:52:57;97555.56;;;37.51;25.64
13235;BME280;6683;48.506;9.050;2023-09-12T12:56:00;97544.72;;;37.32;25.87
13235;BME280;6683;48.506;9.050;2023-09-12T12:59:06;97538.63;;;37.16;25.78
13235;BME280;6683;48.506;9.050;2023-09-12T13:02:09;97541.22;;;37.02;26.12
13235;BME280;6683;48.506;9.050;2023-09-12T13:05:21;97530.34;;;36.83;26.00
13235;BME280;6683;48.506;9.050;2023-09-12T13:08:24;97529.31;;;36.65;26.18
13235;BME280;6683;48.506;9.050;2023-09-12T13:11:26;97533.41;;;36.48;26.38
13235;BME280;6683;48.506;9.050;2023-09-12T13:14:30;97527.31;;;36.36;26.44
13235;BME280;6683;48.506;9.050;2023-09-12T13:17:33;97526.34;;;36.25;26.49
13235;BME280;6683;48.506;9.050;2023-09-12T13:20:35;97519.13;;;36.13;26.49
13235;BME280;6683;48.506;9.050;2023-09-12T13:23:38;97509.91;;;36.02;26.69
13235;BME280;6683;48.506;9.050;2023-09-12T13:26:40;97510.56;;;35.95;26.76
13235;BME280;6683;48.506;9.050;2023-09-12T13:29:44;97504.91;;;35.88;26.37
13235;BME280;6683;48.506;9.050;2023-09-12T13:32:46;97500.47;;;35.80;26.85
13235;BME280;6683;48.506;9.050;2023-09-12T13:35:49;97496.47;;;35.74;26.88
13235;BME280;6683;48.506;9.050;2023-09-12T13:38:51;97499.16;;;35.71;26.46
13235;BME280;6683;48.506;9.050;2023-09-12T13:41:53;97491.22;;;35.66;26.72
13235;BME280;6683;48.506;9.050;2023-09-12T13:45:00;97484.88;;;35.62;26.40
13235;BME280;6683;48.506;9.050;2023-09-12T13:48:02;97487.84;;;35.53;26.51
13235;BME280;6683;48.506;9.050;2023-09-12T13:51:05;97485.31;;;35.45;26.37
13235;BME280;6683;48.506;9.050;2023-09-12T13:54:07;97486.78;;;35.38;26.01
13235;BME280;6683;48.506;9.050;2023-09-12T13:57:15;97481.66;;;35.37;25.46
13235;BME280;6683;48.506;9.050;2023-09-12T14:00:19;97475.75;;;35.35;25.67
13235;BME280;6683;48.506;9.050;2023-09-12T14:03:21;97476.47;;;35.32;26.12
13235;BME280;6683;48.506;9.050;2023-09-12T14:06:23;97494.38;;;35.26;26.44
13235;BME280;6683;48.506;9.050;2023-09-12T14:09:26;97508.72;;;35.16;26.74
13235;BME280;6683;48.506;9.050;2023-09-12T14:12:28;97515.88;;;35.01;27.21
13235;BME280;6683;48.506;9.050;2023-09-12T14:15:31;97507.59;;;34.82;27.53
13235;BME280;6683;48.506;9.050;2023-09-12T14:18:33;97509.13;;;34.61;27.25
13235;BME280;6683;48.506;9.050;2023-09-12T14:21:35;97507.13;;;34.42;27.70
13235;BME280;6683;48.506;9.050;2023-09-12T14:24:37;97506.72;;;34.24;27.79
13235;BME280;6683;48.506;9.050;2023-09-12T14:27:39;97504.00;;;34.09;28.28
13235;BME280;6683;48.506;9.050;2023-09-12T14:30:43;97507.41;;;33.90;28.32
13235;BME280;6683;48.506;9.050;2023-09-12T14:33:46;97517.59;;;33.74;28.25
13235;BME280;6683;48.506;9.050;2023-09-12T14:36:48;97514.13;;;33.61;28.68
13235;BME280;6683;48.506;9.050;2023-09-12T14:39:50;97510.66;;;33.49;29.30
13235;BME280;6683;48.506;9.050;2023-09-12T14:42:52;97507.56;;;33.35;30.03
13235;BME280;6683;48.506;9.050;2023-09-12T14:45:56;97516.19;;;33.21;30.64
13235;BME280;6683;48.506;9.050;2023-09-12T14:48:58;97505.28;;;33.09;30.84
13235;BME280;6683;48.506;9.050;2023-09-12T14:52:00;97519.22;;;32.92;31.28
13235;BME280;6683;48.506;9.050;2023-09-12T14:55:02;97523.03;;;32.75;31.92
13235;BME280;6683;48.506;9.050;2023-09-12T14:58:04;97527.66;;;32.59;32.17
13235;BME280;6683;48.506;9.050;2023-09-12T15:01:07;97530.72;;;32.46;32.33
13235;BME280;6683;48.506;9.050;2023-09-12T15:04:10;97526.19;;;32.38;32.50
13235;BME280;6683;48.506;9.050;2023-09-12T15:07:13;97526.75;;;32.31;32.67
13235;BME280;6683;48.506;9.050;2023-09-12T15:10:16;97534.38;;;32.25;33.16
13235;BME280;6683;48.506;9.050;2023-09-12T15:13:18;97533.38;;;32.18;33.69
13235;BME280;6683;48.506;9.050;2023-09-12T15:16:22;97522.56;;;32.09;33.57
13235;BME280;6683;48.506;9.050;2023-09-12T15:19:25;97512.91;;;32.00;33.96
13235;BME280;6683;48.506;9.050;2023-09-12T15:22:27;97510.56;;;31.90;34.27
13235;BME280;6683;48.506;9.050;2023-09-12T15:25:29;97522.66;;;31.77;34.42
13235;BME280;6683;48.506;9.050;2023-09-12T15:28:32;97534.66;;;31.64;35.10
13235;BME280;6683;48.506;9.050;2023-09-12T15:31:36;97529.84;;;31.48;35.00
13235;BME280;6683;48.506;9.050;2023-09-12T15:34:38;97533.69;;;31.35;34.92
13235;BME280;6683;48.506;9.050;2023-09-12T15:37:40;97531.25;;;31.22;34.92
13235;BME280;6683;48.506;9.050;2023-09-12T15:40:42;97523.47;;;31.12;34.99
13235;BME280;6683;48.506;9.050;2023-09-12T15:43:44;97540.72;;;31.04;35.36
13235;BME280;6683;48.506;9.050;2023-09-12T15:46:48;97544.31;;;30.96;35.64
13235;BME280;6683;48.506;9.050;2023-09-12T15:49:50;97549.03;;;30.87;35.69
13235;BME280;6683;48.506;9.050;2023-09-12T15:52:52;97555.44;;;30.82;35.69
13235;BME280;6683;48.506;9.050;2023-09-12T15:55:54;97548.28;;;30.77;36.09
13235;BME280;6683;48.506;9.050;2023-09-12T15:58:56;97564.84;;;30.72;36.32
13235;BME280;6683;48.506;9.050;2023-09-12T16:02:00;97576.25;;;30.66;36.59
13235;BME280;6683;48.506;9.050;2023-09-12T16:05:02;97594.72;;;30.60;36.99
13235;BME280;6683;48.506;9.050;2023-09-12T16:08:04;97584.03;;;30.55;37.27
13235;BME280;6683;48.506;9.050;2023-09-12T16:11:06;97588.53;;;30.51;37.10
13235;BME280;6683;48.506;9.050;2023-09-12T16:14:09;97596.25;;;30.49;37.08
13235;BME280;6683;48.506;9.050;2023-09-12T16:17:13;97588.25;;;30.44;36.64
13235;BME280;6683;48.506;9.050;2023-09-12T16:20:15;97595.34;;;30.37;37.16
13235;BME280;6683;48.506;9.050;2023-09-12T16:23:17;97598.59;;;30.30;37.25
13235;BME280;6683;48.506;9.050;2023-09-12T16:26:19;97599.88;;;30.24;36.96